Time,TemperatureF,DewpointF,PressureIn,WindDirection,WindDirectionDegrees,WindSpeedMPH,WindSpeedGustMPH,Humidity,HourlyPrecipIn,Conditions,Clouds,dailyrainin,SoftwareType,DateUTC
2013-05-09 00:02:00,62.4,56.1,29.97,North,0,0.0,0.0,80,0.00,,,0.00,WUHU21623XXSP,2013-05-09 05:02:00,
2013-05-09 00:07:00,62.4,56.1,29.97,North,0,0.0,0.0,80,0.00,,,0.00,WUHU21623XXSP,2013-05-09 05:07:00,
2013-05-09 00:12:00,62.4,56.1,29.97,North,0,0.0,0.0,80,0.00,,,0.00,WUHU21623XXSP,2013-05-09 05:12:00,
2013-05-09 00:17:00,62.6,56.3,29.98,North,0,0.0,0.0,80,0.00,,,0.00,WUHU21623XXSP,2013-05-09 05:17:00,
2013-05-09 00:22:00,62.4,56.1,29.97,North,0,0.0,0.0,80,0.00,,,0.00,WUHU21623XXSP,2013-05-09 05:22:00,
2013-05-09 00:27:00,62.4,56.1,29.97,North,0,0.0,0.0,80,0.00,,,0.00,WUHU21623XXSP,2013-05-09 05:27:00,
2013-05-09 00:32:00,62.4,56.1,29.97,North,0,0.0,0.0,80,0.00,,,0.00,WUHU21623XXSP,2013-05-09 05:32:00,
2013-05-09 00:37:00,62.4,56.1,29.97,North,0,0.0,0.0,80,0.00,,,0.00,WUHU21623XXSP,2013-05-09 05:37:00,
2013-05-09 00:42:00,62.4,56.1,29.97,North,0,0.0,0.0,80,0.00,,,0.00,WUHU21623XXSP,2013-05-09 05:42:00,
2013-05-09 00:47:00,62.4,56.1,29.97,North,0,0.0,0.0,80,0.00,,,0.00,WUHU21623XXSP,2013-05-09 05:47:00,
2013-05-09 00:52:00,62.4,56.1,29.97,North,0,0.0,0.0,80,0.00,,,0.00,WUHU21623XXSP,2013-05-09 05:52:00,
2013-05-09 00:57:00,62.4,55.8,29.97,North,0,0.0,0.0,79,0.00,,,0.00,WUHU21623XXSP,2013-05-09 05:57:00,
2013-05-09 01:02:00,62.4,55.8,29.97,North,0,0.0,0.0,80,0.00,,,0.00,WUHU21623XXSP,2013-05-09 06:02:00,
2013-05-09 01:07:00,62.4,55.8,29.96,North,0,0.0,0.0,79,0.00,,,0.00,WUHU21623XXSP,2013-05-09 06:07:00,
2013-05-09 01:12:00,62.4,55.8,29.96,North,0,0.0,0.0,79,0.00,,,0.00,WUHU21623XXSP,2013-05-09 06:12:00,
2013-05-09 01:17:00,62.4,55.8,29.96,North,0,0.0,0.0,79,0.00,,,0.00,WUHU21623XXSP,2013-05-09 06:17:00,
2013-05-09 01:22:00,62.4,55.8,29.96,North,0,0.0,0.0,79,0.00,,,0.00,WUHU21623XXSP,2013-05-09 06:22:00,
2013-05-09 01:27:00,62.2,55.6,29.96,North,0,0.0,0.0,79,0.00,,,0.00,WUHU21623XXSP,2013-05-09 06:27:00,
2013-05-09 01:32:00,62.4,55.8,29.95,North,0,0.0,0.0,79,0.00,,,0.00,WUHU21623XXSP,2013-05-09 06:32:00,
2013-05-09 01:37:00,62.4,56.1,29.95,North,0,0.0,0.0,80,0.00,,,0.00,WUHU21623XXSP,2013-05-09 06:37:00,
2013-05-09 01:42:00,62.4,56.1,29.95,North,0,0.0,0.0,80,0.00,,,0.00,WUHU21623XXSP,2013-05-09 06:42:00,
2013-05-09 01:47:00,62.4,56.1,29.95,North,0,0.0,0.0,80,0.00,,,0.00,WUHU21623XXSP,2013-05-09 06:47:00,
2013-05-09 01:52:00,62.4,56.1,29.95,North,0,0.0,0.0,80,0.00,,,0.00,WUHU21623XXSP,2013-05-09 06:52:00,
2013-05-09 01:57:00,62.4,56.1,29.94,North,0,0.0,0.0,80,0.00,,,0.00,WUHU21623XXSP,2013-05-09 06:57:00,
2013-05-09 02:02:00,62.4,56.1,29.94,North,0,0.0,0.0,80,0.00,,,0.00,WUHU21623XXSP,2013-05-09 07:02:00,
2013-05-09 02:07:00,62.4,56.1,29.94,North,0,0.0,0.0,80,0.00,,,0.00,WUHU21623XXSP,2013-05-09 07:07:00,
2013-05-09 02:12:00,62.4,56.1,29.94,North,0,0.0,0.0,80,0.00,,,0.00,WUHU21623XXSP,2013-05-09 07:12:00,
2013-05-09 02:17:00,62.6,56.1,29.93,North,0,0.0,0.0,80,0.00,,,0.00,WUHU21623XXSP,2013-05-09 07:17:00,
2013-05-09 02:22:00,62.8,56.1,29.93,North,0,0.0,0.0,79,0.00,,,0.00,WUHU21623XXSP,2013-05-09 07:22:00,
2013-05-09 02:27:00,62.8,56.1,29.94,North,0,0.0,0.0,79,0.00,,,0.00,WUHU21623XXSP,2013-05-09 07:27:00,
2013-05-09 02:32:00,62.8,56.1,29.94,North,0,0.0,0.0,79,0.00,,,0.00,WUHU21623XXSP,2013-05-09 07:32:00,
2013-05-09 02:37:00,63.0,56.3,29.94,North,0,0.0,0.0,79,0.00,,,0.00,WUHU21623XXSP,2013-05-09 07:37:00,
2013-05-09 02:42:00,63.1,56.5,29.94,North,0,0.0,0.0,79,0.00,,,0.00,WUHU21623XXSP,2013-05-09 07:42:00,
2013-05-09 02:47:00,63.1,56.1,29.94,North,0,0.0,0.0,78,0.00,,,0.00,WUHU21623XXSP,2013-05-09 07:47:00,
2013-05-09 02:52:00,63.1,56.1,29.94,North,0,0.0,0.0,78,0.00,,,0.00,WUHU21623XXSP,2013-05-09 07:52:00,
2013-05-09 02:57:00,63.1,56.1,29.94,North,0,0.0,0.0,78,0.00,,,0.00,WUHU21623XXSP,2013-05-09 07:57:00,
2013-05-09 03:02:00,63.3,56.3,29.93,North,0,0.0,0.0,78,0.00,,,0.00,WUHU21623XXSP,2013-05-09 08:02:00,
2013-05-09 03:07:00,63.3,56.3,29.93,North,0,0.0,0.0,78,0.00,,,0.00,WUHU21623XXSP,2013-05-09 08:07:00,
2013-05-09 03:12:00,63.1,56.1,29.92,North,0,0.0,0.0,78,0.00,,,0.00,WUHU21623XXSP,2013-05-09 08:12:00,
2013-05-09 03:17:00,63.1,56.1,29.92,North,0,0.0,0.0,78,0.00,,,0.00,WUHU21623XXSP,2013-05-09 08:17:00,
2013-05-09 03:22:00,63.1,56.1,29.92,North,0,0.0,0.0,78,0.00,,,0.00,WUHU21623XXSP,2013-05-09 08:22:00,
2013-05-09 03:27:00,63.1,56.1,29.92,North,0,0.0,0.0,78,0.00,,,0.00,WUHU21623XXSP,2013-05-09 08:27:00,
2013-05-09 03:32:00,63.1,56.1,29.92,North,0,0.0,0.0,78,0.00,,,0.00,WUHU21623XXSP,2013-05-09 08:32:00,
2013-05-09 03:37:00,63.0,55.9,29.92,North,0,0.0,0.0,78,0.00,,,0.00,WUHU21623XXSP,2013-05-09 08:37:00,
2013-05-09 03:42:00,63.0,55.9,29.92,North,0,0.0,0.0,78,0.00,,,0.00,WUHU21623XXSP,2013-05-09 08:42:00,
2013-05-09 03:47:00,63.0,56.3,29.93,North,0,0.0,0.0,79,0.00,,,0.00,WUHU21623XXSP,2013-05-09 08:47:00,
2013-05-09 03:52:00,63.0,56.3,29.93,North,0,0.0,0.0,79,0.00,,,0.00,WUHU21623XXSP,2013-05-09 08:52:00,
2013-05-09 03:57:00,63.0,56.1,29.93,North,0,0.0,0.0,79,0.00,,,0.00,WUHU21623XXSP,2013-05-09 08:57:00,
2013-05-09 04:02:00,62.8,56.1,29.92,North,0,0.0,0.0,79,0.00,,,0.00,WUHU21623XXSP,2013-05-09 09:02:00,
2013-05-09 04:07:00,62.8,56.1,29.93,North,0,0.0,0.0,79,0.00,,,0.00,WUHU21623XXSP,2013-05-09 09:07:00,
2013-05-09 04:12:00,62.8,56.1,29.95,North,0,0.0,0.0,79,0.00,,,0.00,WUHU21623XXSP,2013-05-09 09:12:00,
2013-05-09 04:17:00,63.0,56.3,29.95,North,0,0.0,0.0,79,0.00,,,0.00,WUHU21623XXSP,2013-05-09 09:17:00,
2013-05-09 04:22:00,62.8,56.1,29.95,North,0,0.0,0.0,79,0.00,,,0.00,WUHU21623XXSP,2013-05-09 09:22:00,
2013-05-09 04:27:00,62.8,56.1,29.94,North,0,0.0,0.0,79,0.00,,,0.00,WUHU21623XXSP,2013-05-09 09:27:00,
2013-05-09 04:32:00,62.8,56.1,29.95,North,0,0.0,0.0,80,0.00,,,0.00,WUHU21623XXSP,2013-05-09 09:32:00,
2013-05-09 04:37:00,62.8,56.1,29.95,North,0,0.0,0.0,79,0.00,,,0.00,WUHU21623XXSP,2013-05-09 09:37:00,
2013-05-09 04:42:00,62.8,56.1,29.95,North,0,0.0,0.0,79,0.00,,,0.00,WUHU21623XXSP,2013-05-09 09:42:00,
2013-05-09 04:47:00,62.6,56.1,29.95,North,0,0.0,0.0,79,0.00,,,0.00,WUHU21623XXSP,2013-05-09 09:47:00,
2013-05-09 04:52:00,62.6,55.9,29.94,North,0,0.0,0.0,79,0.00,,,0.00,WUHU21623XXSP,2013-05-09 09:52:00,
2013-05-09 04:57:00,62.4,55.8,29.95,North,0,0.0,0.0,79,0.00,,,0.00,WUHU21623XXSP,2013-05-09 09:57:00,
2013-05-09 05:02:00,62.4,55.8,29.94,North,0,0.0,0.0,79,0.00,,,0.00,WUHU21623XXSP,2013-05-09 10:02:00,
2013-05-09 05:07:00,62.2,55.6,29.95,North,0,0.0,0.0,79,0.00,,,0.00,WUHU21623XXSP,2013-05-09 10:07:00,
2013-05-09 05:12:00,62.1,55.5,29.94,North,0,0.0,0.0,79,0.00,,,0.00,WUHU21623XXSP,2013-05-09 10:12:00,
2013-05-09 05:17:00,61.7,55.1,29.94,North,0,0.0,0.0,79,0.00,,,0.00,WUHU21623XXSP,2013-05-09 10:17:00,
2013-05-09 05:22:00,61.7,55.1,29.94,North,0,0.0,0.0,79,0.00,,,0.00,WUHU21623XXSP,2013-05-09 10:22:00,
2013-05-09 05:27:00,61.5,55.0,29.93,North,0,0.0,0.0,80,0.00,,,0.00,WUHU21623XXSP,2013-05-09 10:27:00,
2013-05-09 05:32:00,61.5,55.3,29.93,North,0,0.0,0.0,80,0.00,,,0.00,WUHU21623XXSP,2013-05-09 10:32:00,
2013-05-09 05:37:00,61.3,55.2,29.94,North,0,0.0,0.0,80,0.00,,,0.00,WUHU21623XXSP,2013-05-09 10:37:00,
2013-05-09 05:42:00,61.2,55.2,29.94,North,0,0.0,0.0,80,0.00,,,0.00,WUHU21623XXSP,2013-05-09 10:42:00,
2013-05-09 05:47:00,61.2,55.3,29.94,North,0,0.0,0.0,81,0.00,,,0.00,WUHU21623XXSP,2013-05-09 10:47:00,
2013-05-09 05:52:00,61.0,55.5,29.94,North,0,0.0,0.0,82,0.00,,,0.00,WUHU21623XXSP,2013-05-09 10:52:00,
2013-05-09 05:57:00,61.0,55.5,29.93,North,0,0.0,0.0,82,0.00,,,0.00,WUHU21623XXSP,2013-05-09 10:57:00,
2013-05-09 06:02:00,60.6,55.5,29.94,North,0,0.0,0.0,83,0.00,,,0.00,WUHU21623XXSP,2013-05-09 11:02:00,
2013-05-09 06:07:00,60.6,55.5,29.93,North,0,0.0,0.0,83,0.00,,,0.00,WUHU21623XXSP,2013-05-09 11:07:00,
2013-05-09 06:12:00,60.6,55.5,29.93,North,0,0.0,0.0,83,0.00,,,0.00,WUHU21623XXSP,2013-05-09 11:12:00,
2013-05-09 06:17:00,60.4,55.3,29.93,North,0,0.0,0.0,83,0.00,,,0.00,WUHU21623XXSP,2013-05-09 11:17:00,
2013-05-09 06:22:00,60.4,55.6,29.93,North,0,0.0,0.0,84,0.00,,,0.00,WUHU21623XXSP,2013-05-09 11:22:00,
2013-05-09 06:27:00,60.4,55.6,29.93,North,0,0.0,0.0,84,0.00,,,0.00,WUHU21623XXSP,2013-05-09 11:27:00,
2013-05-09 06:32:00,60.4,55.6,29.93,North,0,0.0,0.0,84,0.00,,,0.00,WUHU21623XXSP,2013-05-09 11:32:00,
2013-05-09 06:37:00,60.4,55.6,29.93,North,0,0.0,0.0,84,0.00,,,0.00,WUHU21623XXSP,2013-05-09 11:37:00,
2013-05-09 06:42:00,60.6,55.8,29.94,North,0,0.0,0.0,84,0.00,,,0.00,WUHU21623XXSP,2013-05-09 11:42:00,
2013-05-09 06:47:00,60.6,56.1,29.93,North,0,0.0,0.0,85,0.00,,,0.00,WUHU21623XXSP,2013-05-09 11:47:00,
2013-05-09 06:52:00,61.0,56.5,29.93,North,0,0.0,0.0,85,0.00,,,0.00,WUHU21623XXSP,2013-05-09 11:52:00,
2013-05-09 06:57:00,61.0,56.5,29.93,North,0,0.0,0.0,85,0.00,,,0.00,WUHU21623XXSP,2013-05-09 11:57:00,
2013-05-09 07:02:00,61.2,56.6,29.93,North,0,0.0,0.0,85,0.00,,,0.00,WUHU21623XXSP,2013-05-09 12:02:00,
2013-05-09 07:07:00,61.3,57.1,29.93,North,0,0.0,0.0,86,0.00,,,0.00,WUHU21623XXSP,2013-05-09 12:07:00,
2013-05-09 07:12:00,62.1,58.2,29.92,North,0,0.0,0.0,87,0.00,,,0.00,WUHU21623XXSP,2013-05-09 12:12:00,
2013-05-09 07:17:00,62.6,58.7,29.92,North,0,0.0,0.0,87,0.00,,,0.00,WUHU21623XXSP,2013-05-09 12:17:00,
2013-05-09 07:22:00,62.6,59.0,29.92,North,0,0.0,0.0,88,0.00,,,0.00,WUHU21623XXSP,2013-05-09 12:22:00,
2013-05-09 07:27:00,62.6,59.0,29.92,North,0,0.0,0.0,88,0.00,,,0.00,WUHU21623XXSP,2013-05-09 12:27:00,
2013-05-09 07:32:00,62.6,59.0,29.93,North,0,0.0,0.0,88,0.00,,,0.00,WUHU21623XXSP,2013-05-09 12:32:00,
2013-05-09 07:37:00,62.6,59.0,29.93,North,0,0.0,0.0,88,0.00,,,0.00,WUHU21623XXSP,2013-05-09 12:37:00,
2013-05-09 07:46:00,66.0,60.4,29.92,North,0,0.0,0.0,82,0.00,,,0.00,WUHU21623XXSP,2013-05-09 12:46:00,
2013-05-09 07:51:00,65.8,60.2,29.92,North,0,0.0,0.0,82,0.00,,,0.00,WUHU21623XXSP,2013-05-09 12:51:00,
2013-05-09 07:56:00,65.8,60.2,29.92,North,0,0.0,0.0,82,0.00,,,0.00,WUHU21623XXSP,2013-05-09 12:56:00,
2013-05-09 08:01:00,65.8,60.2,29.92,North,0,0.0,0.0,82,0.00,,,0.00,WUHU21623XXSP,2013-05-09 13:01:00,
2013-05-09 08:06:00,65.8,60.2,29.92,North,0,0.0,0.0,82,0.00,,,0.00,WUHU21623XXSP,2013-05-09 13:06:00,
2013-05-09 08:11:00,65.7,60.0,29.92,North,0,0.0,0.0,82,0.00,,,0.00,WUHU21623XXSP,2013-05-09 13:11:00,
2013-05-09 08:16:00,65.5,59.8,29.92,North,0,0.0,0.0,82,0.00,,,0.00,WUHU21623XXSP,2013-05-09 13:16:00,
2013-05-09 08:21:00,65.5,59.5,29.92,North,0,0.0,0.0,81,0.00,,,0.00,WUHU21623XXSP,2013-05-09 13:21:00,
2013-05-09 08:26:00,65.5,59.8,29.91,North,0,0.0,0.0,82,0.00,,,0.00,WUHU21623XXSP,2013-05-09 13:26:00,
2013-05-09 08:31:00,65.7,60.3,29.92,North,0,0.0,0.0,83,0.00,,,0.00,WUHU21623XXSP,2013-05-09 13:31:00,
2013-05-09 08:36:00,65.8,60.2,29.92,North,0,0.0,0.0,82,0.00,,,0.00,WUHU21623XXSP,2013-05-09 13:36:00,
2013-05-09 08:41:00,65.7,60.0,29.92,North,0,0.0,0.0,82,0.00,,,0.00,WUHU21623XXSP,2013-05-09 13:41:00,
2013-05-09 08:46:00,65.5,59.8,29.92,North,0,0.0,0.0,82,0.00,,,0.00,WUHU21623XXSP,2013-05-09 13:46:00,
2013-05-09 08:51:00,65.3,59.7,29.92,North,0,0.0,0.0,82,0.00,,,0.00,WUHU21623XXSP,2013-05-09 13:51:00,
2013-05-09 08:56:00,65.1,59.8,29.92,North,0,0.0,0.0,83,0.00,,,0.00,WUHU21623XXSP,2013-05-09 13:56:00,
2013-05-09 09:01:00,65.1,59.8,29.91,North,0,0.0,0.0,83,0.00,,,0.00,WUHU21623XXSP,2013-05-09 14:01:00,
2013-05-09 09:06:00,65.3,59.8,29.91,North,0,0.0,0.0,83,0.00,,,0.00,WUHU21623XXSP,2013-05-09 14:06:00,
2013-05-09 09:11:00,65.5,60.5,29.91,North,0,0.0,0.0,84,0.00,,,0.00,WUHU21623XXSP,2013-05-09 14:11:00,
2013-05-09 09:16:00,65.8,60.7,29.91,North,0,0.0,0.0,84,0.00,,,0.00,WUHU21623XXSP,2013-05-09 14:16:00,
2013-05-09 09:21:00,65.8,60.5,29.91,North,0,0.0,0.0,83,0.00,,,0.00,WUHU21623XXSP,2013-05-09 14:21:00,
2013-05-09 09:26:00,65.8,60.5,29.92,North,0,0.0,0.0,83,0.00,,,0.00,WUHU21623XXSP,2013-05-09 14:26:00,
2013-05-09 09:31:00,65.8,60.5,29.92,North,0,0.0,0.0,83,0.00,,,0.00,WUHU21623XXSP,2013-05-09 14:31:00,
2013-05-09 09:36:00,65.5,60.2,29.92,North,0,0.0,0.0,83,0.00,,,0.00,WUHU21623XXSP,2013-05-09 14:36:00,
2013-05-09 09:41:00,65.1,59.8,29.91,North,0,0.0,0.0,83,0.00,,,0.00,WUHU21623XXSP,2013-05-09 14:41:00,
2013-05-09 09:46:00,64.9,59.8,29.92,North,0,0.0,0.0,83,0.00,,,0.00,WUHU21623XXSP,2013-05-09 14:46:00,
2013-05-09 09:51:00,64.8,59.6,29.92,North,0,0.0,0.0,83,0.00,,,0.00,WUHU21623XXSP,2013-05-09 14:51:00,
2013-05-09 09:56:00,64.2,58.9,29.93,North,0,0.0,0.0,83,0.00,,,0.00,WUHU21623XXSP,2013-05-09 14:56:00,
2013-05-09 10:01:00,64.2,59.3,29.93,North,0,0.0,0.0,84,0.00,,,0.00,WUHU21623XXSP,2013-05-09 15:01:00,
2013-05-09 10:06:00,64.2,59.3,29.93,North,0,0.0,0.0,84,0.00,,,0.00,WUHU21623XXSP,2013-05-09 15:06:00,
2013-05-09 10:11:00,64.0,59.5,29.93,North,0,0.0,0.0,85,0.00,,,0.00,WUHU21623XXSP,2013-05-09 15:11:00,
2013-05-09 10:16:00,64.0,59.5,29.93,North,0,0.0,0.0,85,0.00,,,0.00,WUHU21623XXSP,2013-05-09 15:16:00,
2013-05-09 10:21:00,64.0,59.5,29.92,North,0,0.0,0.0,85,0.00,,,0.00,WUHU21623XXSP,2013-05-09 15:21:00,
2013-05-09 10:26:00,64.0,59.5,29.93,North,0,0.0,0.0,85,0.00,,,0.00,WUHU21623XXSP,2013-05-09 15:26:00,
2013-05-09 10:31:00,64.6,60.3,29.92,North,0,0.0,0.0,86,0.00,,,0.00,WUHU21623XXSP,2013-05-09 15:31:00,
2013-05-09 10:36:00,65.1,60.8,29.92,North,0,0.0,0.0,86,0.00,,,0.00,WUHU21623XXSP,2013-05-09 15:36:00,
2013-05-09 10:41:00,65.8,61.5,29.92,North,0,0.0,0.0,86,0.00,,,0.00,WUHU21623XXSP,2013-05-09 15:41:00,
2013-05-09 10:46:00,66.0,61.5,29.92,North,0,0.0,0.0,86,0.00,,,0.00,WUHU21623XXSP,2013-05-09 15:46:00,
2013-05-09 10:51:00,66.0,61.7,29.92,North,0,0.0,0.0,86,0.00,,,0.00,WUHU21623XXSP,2013-05-09 15:51:00,
2013-05-09 10:56:00,66.0,61.3,29.92,North,0,0.0,0.0,85,0.00,,,0.00,WUHU21623XXSP,2013-05-09 15:56:00,
2013-05-09 11:01:00,66.0,61.3,29.92,North,0,0.0,0.0,85,0.00,,,0.00,WUHU21623XXSP,2013-05-09 16:01:00,
2013-05-09 11:06:00,65.8,61.2,29.92,North,0,0.0,0.0,84,0.00,,,0.00,WUHU21623XXSP,2013-05-09 16:06:00,
2013-05-09 11:11:00,65.5,60.8,29.92,North,0,0.0,0.0,85,0.00,,,0.00,WUHU21623XXSP,2013-05-09 16:11:00,
2013-05-09 11:16:00,65.3,60.8,29.92,North,0,0.0,0.0,85,0.00,,,0.00,WUHU21623XXSP,2013-05-09 16:16:00,
2013-05-09 11:21:00,65.1,60.5,29.92,North,0,0.0,0.0,85,0.00,,,0.00,WUHU21623XXSP,2013-05-09 16:21:00,
2013-05-09 11:26:00,64.9,60.3,29.92,North,0,0.0,0.0,85,0.00,,,0.00,WUHU21623XXSP,2013-05-09 16:26:00,
2013-05-09 11:31:00,64.8,60.2,29.92,North,0,0.0,0.0,85,0.00,,,0.00,WUHU21623XXSP,2013-05-09 16:31:00,
2013-05-09 11:36:00,64.6,60.0,29.92,North,0,0.0,0.0,85,0.00,,,0.00,WUHU21623XXSP,2013-05-09 16:36:00,
2013-05-09 11:41:00,64.6,60.3,29.92,North,0,0.0,0.0,86,0.00,,,0.00,WUHU21623XXSP,2013-05-09 16:41:00,
2013-05-09 11:46:00,64.6,60.2,29.92,North,0,0.0,0.0,86,0.00,,,0.00,WUHU21623XXSP,2013-05-09 16:46:00,
2013-05-09 11:51:00,64.6,60.3,29.92,North,0,0.0,0.0,86,0.00,,,0.00,WUHU21623XXSP,2013-05-09 16:51:00,
2013-05-09 11:56:00,64.4,60.2,29.92,North,0,0.0,0.0,86,0.00,,,0.00,WUHU21623XXSP,2013-05-09 16:56:00,
2013-05-09 12:01:00,64.4,60.2,29.92,North,0,0.0,0.0,86,0.00,,,0.00,WUHU21623XXSP,2013-05-09 17:01:00,
2013-05-09 12:06:00,64.6,60.7,29.92,North,0,0.0,0.0,87,0.00,,,0.00,WUHU21623XXSP,2013-05-09 17:06:00,
2013-05-09 12:11:00,64.9,61.0,29.92,North,0,0.0,0.0,87,0.00,,,0.00,WUHU21623XXSP,2013-05-09 17:11:00,
2013-05-09 12:16:00,65.1,61.2,29.92,North,0,0.0,0.0,87,0.00,,,0.00,WUHU21623XXSP,2013-05-09 17:16:00,
2013-05-09 12:21:00,65.7,61.7,29.91,North,0,0.0,0.0,87,0.00,,,0.00,WUHU21623XXSP,2013-05-09 17:21:00,
2013-05-09 12:26:00,65.8,61.8,29.91,North,0,0.0,0.0,87,0.00,,,0.00,WUHU21623XXSP,2013-05-09 17:26:00,
2013-05-09 12:31:00,66.0,62.0,29.91,North,0,0.0,0.0,87,0.00,,,0.00,WUHU21623XXSP,2013-05-09 17:31:00,
2013-05-09 12:36:00,65.8,61.5,29.91,North,0,0.0,0.0,86,0.00,,,0.00,WUHU21623XXSP,2013-05-09 17:36:00,
2013-05-09 12:41:00,65.8,61.5,29.91,North,0,0.0,0.0,86,0.00,,,0.00,WUHU21623XXSP,2013-05-09 17:41:00,
2013-05-09 12:46:00,65.7,61.3,29.91,North,0,0.0,0.0,86,0.00,,,0.00,WUHU21623XXSP,2013-05-09 17:46:00,
2013-05-09 12:51:00,65.5,61.2,29.91,North,0,0.0,0.0,86,0.00,,,0.00,WUHU21623XXSP,2013-05-09 17:51:00,
2013-05-09 12:56:00,65.3,61.0,29.91,North,0,0.0,0.0,86,0.00,,,0.00,WUHU21623XXSP,2013-05-09 17:56:00,
2013-05-09 13:01:00,65.3,61.0,29.91,North,0,0.0,0.0,86,0.00,,,0.00,WUHU21623XXSP,2013-05-09 18:01:00,
2013-05-09 13:06:00,65.5,61.2,29.91,North,0,0.0,0.0,86,0.00,,,0.00,WUHU21623XXSP,2013-05-09 18:06:00,
2013-05-09 13:11:00,66.0,61.7,29.91,North,0,0.0,0.0,86,0.00,,,0.00,WUHU21623XXSP,2013-05-09 18:11:00,
2013-05-09 13:16:00,66.7,62.4,29.90,North,0,0.0,0.0,86,0.00,,,0.00,WUHU21623XXSP,2013-05-09 18:16:00,
2013-05-09 13:21:00,67.8,63.4,29.91,North,0,0.0,0.0,87,0.00,,,0.00,WUHU21623XXSP,2013-05-09 18:21:00,
2013-05-09 13:26:00,68.7,64.0,29.90,North,0,0.0,0.0,86,0.00,,,0.00,WUHU21623XXSP,2013-05-09 18:26:00,
2013-05-09 13:31:00,69.3,64.7,29.90,North,0,0.0,0.0,86,0.00,,,0.00,WUHU21623XXSP,2013-05-09 18:31:00,
2013-05-09 13:36:00,69.1,63.3,29.90,North,0,0.0,0.0,82,0.00,,,0.00,WUHU21623XXSP,2013-05-09 18:36:00,
2013-05-09 13:41:00,69.1,63.3,29.90,North,0,0.0,0.0,82,0.00,,,0.00,WUHU21623XXSP,2013-05-09 18:41:00,
2013-05-09 13:46:00,69.1,63.3,29.90,North,0,0.0,0.0,82,0.00,,,0.00,WUHU21623XXSP,2013-05-09 18:46:00,
2013-05-09 13:51:00,69.3,63.5,29.91,North,0,0.0,0.0,82,0.00,,,0.00,WUHU21623XXSP,2013-05-09 18:51:00,
2013-05-09 13:56:00,69.4,63.3,29.91,North,0,0.0,0.0,81,0.00,,,0.00,WUHU21623XXSP,2013-05-09 18:56:00,
2013-05-09 14:01:00,69.4,63.0,29.90,North,0,0.0,0.0,80,0.00,,,0.00,WUHU21623XXSP,2013-05-09 19:01:00,
2013-05-09 14:06:00,69.6,63.2,29.90,North,0,0.0,0.0,80,0.00,,,0.00,WUHU21623XXSP,2013-05-09 19:06:00,
2013-05-09 14:11:00,69.6,63.2,29.90,North,0,0.0,0.0,80,0.00,,,0.00,WUHU21623XXSP,2013-05-09 19:11:00,
2013-05-09 14:16:00,69.6,63.2,29.90,North,0,0.0,0.0,80,0.00,,,0.00,WUHU21623XXSP,2013-05-09 19:16:00,
2013-05-09 14:21:00,70.2,62.9,29.90,North,0,0.0,0.0,78,0.00,,,0.00,WUHU21623XXSP,2013-05-09 19:21:00,
2013-05-09 14:26:00,70.2,62.9,29.90,North,0,0.0,0.0,78,0.00,,,0.00,WUHU21623XXSP,2013-05-09 19:26:00,
2013-05-09 14:31:00,70.2,62.9,29.91,North,0,0.0,0.0,78,0.00,,,0.00,WUHU21623XXSP,2013-05-09 19:31:00,
2013-05-09 14:36:00,69.4,61.9,29.89,North,0,0.0,0.0,77,0.00,,,0.00,WUHU21623XXSP,2013-05-09 19:36:00,
2013-05-09 14:41:00,69.4,61.9,29.89,North,0,0.0,0.0,78,0.00,,,0.00,WUHU21623XXSP,2013-05-09 19:41:00,
2013-05-09 14:46:00,69.6,62.2,29.89,North,0,0.0,0.0,78,0.00,,,0.00,WUHU21623XXSP,2013-05-09 19:46:00,
2013-05-09 14:51:00,70.7,63.1,29.88,North,0,0.0,0.0,78,0.00,,,0.00,WUHU21623XXSP,2013-05-09 19:51:00,
2013-05-09 14:56:00,70.9,63.3,29.88,North,0,0.0,0.0,77,0.00,,,0.00,WUHU21623XXSP,2013-05-09 19:56:00,
2013-05-09 15:01:00,71.2,63.2,29.88,North,0,0.0,0.0,76,0.00,,,0.00,WUHU21623XXSP,2013-05-09 20:01:00,
2013-05-09 15:06:00,71.6,63.4,29.88,North,0,0.0,0.0,75,0.00,,,0.00,WUHU21623XXSP,2013-05-09 20:06:00,
2013-05-09 15:11:00,72.0,63.6,29.87,North,0,0.0,0.0,75,0.00,,,0.00,WUHU21623XXSP,2013-05-09 20:11:00,
2013-05-09 15:17:00,72.1,63.8,29.87,North,0,0.0,0.0,75,0.00,,,0.00,WUHU21623XXSP,2013-05-09 20:17:00,
2013-05-09 15:22:00,72.7,63.9,29.87,North,0,0.0,0.0,74,0.00,,,0.00,WUHU21623XXSP,2013-05-09 20:22:00,
2013-05-09 15:27:00,73.0,64.3,29.87,North,0,0.0,0.0,74,0.00,,,0.00,WUHU21623XXSP,2013-05-09 20:27:00,
2013-05-09 15:32:00,73.2,64.1,29.87,North,0,0.0,0.0,73,0.00,,,0.00,WUHU21623XXSP,2013-05-09 20:32:00,
2013-05-09 15:37:00,73.8,64.2,29.87,North,0,0.0,0.0,72,0.00,,,0.00,WUHU21623XXSP,2013-05-09 20:37:00,
2013-05-09 15:42:00,73.9,64.0,29.87,North,0,0.0,0.0,71,0.00,,,0.00,WUHU21623XXSP,2013-05-09 20:42:00,
2013-05-09 15:47:00,74.3,64.3,29.87,North,0,0.0,0.0,71,0.00,,,0.00,WUHU21623XXSP,2013-05-09 20:47:00,
2013-05-09 15:52:00,74.5,64.1,29.87,North,0,0.0,0.0,69,0.00,,,0.00,WUHU21623XXSP,2013-05-09 20:52:00,
2013-05-09 15:57:00,74.5,63.7,29.87,North,0,0.0,0.0,69,0.00,,,0.00,WUHU21623XXSP,2013-05-09 20:57:00,
2013-05-09 16:02:00,74.8,63.8,29.87,North,0,0.0,0.0,69,0.00,,,0.00,WUHU21623XXSP,2013-05-09 21:02:00,
2013-05-09 16:07:00,75.2,64.1,29.87,North,0,0.0,0.0,68,0.00,,,0.00,WUHU21623XXSP,2013-05-09 21:07:00,
2013-05-09 16:12:00,75.6,63.6,29.87,North,0,0.0,0.0,67,0.00,,,0.00,WUHU21623XXSP,2013-05-09 21:12:00,
2013-05-09 16:17:00,76.1,64.0,29.87,North,0,0.0,0.0,66,0.00,,,0.00,WUHU21623XXSP,2013-05-09 21:17:00,
2013-05-09 16:22:00,75.9,63.4,29.87,North,0,0.0,0.0,65,0.00,,,0.00,WUHU21623XXSP,2013-05-09 21:22:00,
2013-05-09 16:27:00,76.3,63.6,29.87,North,0,0.0,0.0,65,0.00,,,0.00,WUHU21623XXSP,2013-05-09 21:27:00,
2013-05-09 16:32:00,76.6,64.0,29.87,North,0,0.0,0.0,65,0.00,,,0.00,WUHU21623XXSP,2013-05-09 21:32:00,
2013-05-09 16:37:00,76.8,64.1,29.87,North,0,0.0,0.0,65,0.00,,,0.00,WUHU21623XXSP,2013-05-09 21:37:00,
2013-05-09 16:42:00,77.2,64.0,29.87,North,0,0.0,0.0,64,0.00,,,0.00,WUHU21623XXSP,2013-05-09 21:42:00,
2013-05-09 16:47:00,77.2,63.6,29.87,North,0,0.0,0.0,63,0.00,,,0.00,WUHU21623XXSP,2013-05-09 21:47:00,
2013-05-09 16:52:00,77.2,64.0,29.87,North,0,0.0,0.0,64,0.00,,,0.00,WUHU21623XXSP,2013-05-09 21:52:00,
2013-05-09 16:57:00,76.8,63.7,29.87,North,0,0.0,0.0,64,0.00,,,0.00,WUHU21623XXSP,2013-05-09 21:57:00,
2013-05-09 17:02:00,76.6,63.5,29.87,North,0,0.0,0.0,64,0.00,,,0.00,WUHU21623XXSP,2013-05-09 22:02:00,
2013-05-09 17:07:00,76.1,63.0,29.86,North,0,0.0,0.0,64,0.00,,,0.00,WUHU21623XXSP,2013-05-09 22:07:00,
2013-05-09 17:12:00,75.7,62.7,29.86,North,0,0.0,0.0,64,0.00,,,0.00,WUHU21623XXSP,2013-05-09 22:12:00,
2013-05-09 17:17:00,75.0,62.3,29.86,North,0,0.0,0.0,65,0.00,,,0.00,WUHU21623XXSP,2013-05-09 22:17:00,
2013-05-09 17:22:00,74.5,61.9,29.86,North,0,0.0,0.0,65,0.00,,,0.00,WUHU21623XXSP,2013-05-09 22:22:00,
2013-05-09 17:27:00,74.1,61.6,29.86,North,0,0.0,0.0,65,0.00,,,0.00,WUHU21623XXSP,2013-05-09 22:27:00,
2013-05-09 17:32:00,73.6,62.0,29.86,North,0,0.0,0.0,67,0.00,,,0.00,WUHU21623XXSP,2013-05-09 22:32:00,
2013-05-09 17:37:00,73.2,62.5,29.86,North,0,0.0,0.0,69,0.00,,,0.00,WUHU21623XXSP,2013-05-09 22:37:00,
2013-05-09 17:42:00,72.7,62.0,29.86,North,0,0.0,0.0,69,0.00,,,0.00,WUHU21623XXSP,2013-05-09 22:42:00,
2013-05-09 17:47:00,72.3,62.1,29.86,North,0,0.0,0.0,70,0.00,,,0.00,WUHU21623XXSP,2013-05-09 22:47:00,
2013-05-09 17:52:00,72.3,62.4,29.86,North,0,0.0,0.0,71,0.00,,,0.00,WUHU21623XXSP,2013-05-09 22:52:00,
2013-05-09 17:57:00,72.3,62.4,29.86,North,0,0.0,0.0,71,0.00,,,0.00,WUHU21623XXSP,2013-05-09 22:57:00,
2013-05-09 18:02:00,72.5,62.6,29.85,North,0,0.0,0.0,71,0.00,,,0.00,WUHU21623XXSP,2013-05-09 23:02:00,
2013-05-09 18:07:00,73.2,63.3,29.85,North,0,0.0,0.0,71,0.00,,,0.00,WUHU21623XXSP,2013-05-09 23:07:00,
2013-05-09 18:12:00,73.4,63.1,29.86,North,0,0.0,0.0,70,0.00,,,0.00,WUHU21623XXSP,2013-05-09 23:12:00,
2013-05-09 18:17:00,73.2,63.0,29.86,North,0,0.0,0.0,70,0.00,,,0.00,WUHU21623XXSP,2013-05-09 23:17:00,
2013-05-09 18:22:00,73.0,62.8,29.86,North,0,0.0,0.0,70,0.00,,,0.00,WUHU21623XXSP,2013-05-09 23:22:00,
2013-05-09 18:27:00,72.9,62.6,29.86,North,0,0.0,0.0,70,0.00,,,0.00,WUHU21623XXSP,2013-05-09 23:27:00,
2013-05-09 18:32:00,72.1,62.4,29.86,North,0,0.0,0.0,71,0.00,,,0.00,WUHU21623XXSP,2013-05-09 23:32:00,
2013-05-09 18:37:00,71.8,61.9,29.87,North,0,0.0,0.0,71,0.00,,,0.00,WUHU21623XXSP,2013-05-09 23:37:00,
2013-05-09 18:42:00,71.4,61.5,29.87,North,0,0.0,0.0,71,0.00,,,0.00,WUHU21623XXSP,2013-05-09 23:42:00,
2013-05-09 18:47:00,70.9,61.0,29.88,North,0,0.0,0.0,71,0.00,,,0.00,WUHU21623XXSP,2013-05-09 23:47:00,
2013-05-09 18:52:00,70.7,60.8,29.88,North,0,0.0,0.0,71,0.00,,,0.00,WUHU21623XXSP,2013-05-09 23:52:00,
2013-05-09 18:57:00,70.5,60.6,29.88,North,0,0.0,0.0,71,0.00,,,0.00,WUHU21623XXSP,2013-05-09 23:57:00,
2013-05-09 19:02:00,70.2,60.5,29.87,North,0,0.0,0.0,71,0.00,,,0.00,WUHU21623XXSP,2013-05-10 00:02:00,
2013-05-09 19:07:00,70.0,60.1,29.88,North,0,0.0,0.0,71,0.00,,,0.00,WUHU21623XXSP,2013-05-10 00:07:00,
2013-05-09 19:12:00,69.6,59.9,29.89,North,0,0.0,0.0,71,0.00,,,0.00,WUHU21623XXSP,2013-05-10 00:12:00,
2013-05-09 19:17:00,68.9,59.4,29.89,North,0,0.0,0.0,72,0.00,,,0.00,WUHU21623XXSP,2013-05-10 00:17:00,
2013-05-09 19:22:00,68.4,59.3,29.88,North,0,0.0,0.0,73,0.00,,,0.00,WUHU21623XXSP,2013-05-10 00:22:00,
2013-05-09 19:27:00,67.8,59.2,29.88,North,0,0.0,0.0,74,0.00,,,0.00,WUHU21623XXSP,2013-05-10 00:27:00,
2013-05-09 19:32:00,67.3,59.1,29.89,North,0,0.0,0.0,75,0.00,,,0.00,WUHU21623XXSP,2013-05-10 00:32:00,
2013-05-09 19:37:00,66.7,58.7,29.90,North,0,0.0,0.0,77,0.00,,,0.00,WUHU21623XXSP,2013-05-10 00:37:00,
2013-05-09 19:42:00,65.8,58.8,29.90,North,0,0.0,0.0,77,0.00,,,0.00,WUHU21623XXSP,2013-05-10 00:42:00,
2013-05-09 19:47:00,64.9,58.1,29.90,North,0,0.0,0.0,79,0.00,,,0.00,WUHU21623XXSP,2013-05-10 00:47:00,
2013-05-09 19:52:00,64.2,57.6,29.90,North,0,0.0,0.0,79,0.00,,,0.00,WUHU21623XXSP,2013-05-10 00:52:00,
2013-05-09 19:57:00,64.0,57.9,29.90,North,0,0.0,0.0,80,0.00,,,0.00,WUHU21623XXSP,2013-05-10 00:57:00,
2013-05-09 20:02:00,63.7,57.9,29.90,North,0,0.0,0.0,81,0.00,,,0.00,WUHU21623XXSP,2013-05-10 01:02:00,
2013-05-09 20:07:00,63.5,58.1,29.90,North,0,0.0,0.0,82,0.00,,,0.00,WUHU21623XXSP,2013-05-10 01:07:00,
2013-05-09 20:12:00,63.3,57.7,29.90,North,0,0.0,0.0,82,0.00,,,0.00,WUHU21623XXSP,2013-05-10 01:12:00,
2013-05-09 20:17:00,63.1,57.5,29.91,North,0,0.0,0.0,82,0.00,,,0.00,WUHU21623XXSP,2013-05-10 01:17:00,
2013-05-09 20:22:00,63.0,57.9,29.91,North,0,0.0,0.0,83,0.00,,,0.00,WUHU21623XXSP,2013-05-10 01:22:00,
2013-05-09 20:27:00,62.8,57.5,29.91,North,0,0.0,0.0,83,0.00,,,0.00,WUHU21623XXSP,2013-05-10 01:27:00,
2013-05-09 20:32:00,62.6,57.5,29.90,North,0,0.0,0.0,83,0.00,,,0.00,WUHU21623XXSP,2013-05-10 01:32:00,
2013-05-09 20:37:00,62.4,57.1,29.90,North,0,0.0,0.0,83,0.00,,,0.00,WUHU21623XXSP,2013-05-10 01:37:00,
2013-05-09 20:42:00,62.4,57.5,29.90,North,0,0.0,0.0,84,0.00,,,0.00,WUHU21623XXSP,2013-05-10 01:42:00,
2013-05-09 20:47:00,62.4,57.5,29.90,North,0,0.0,0.0,84,0.00,,,0.00,WUHU21623XXSP,2013-05-10 01:47:00,
2013-05-09 20:52:00,62.2,57.3,29.90,North,0,0.0,0.0,84,0.00,,,0.00,WUHU21623XXSP,2013-05-10 01:52:00,
2013-05-09 20:57:00,62.1,57.1,29.90,North,0,0.0,0.0,84,0.00,,,0.00,WUHU21623XXSP,2013-05-10 01:57:00,
2013-05-09 21:02:00,61.9,57.0,29.90,North,0,0.0,0.0,84,0.00,,,0.00,WUHU21623XXSP,2013-05-10 02:02:00,
2013-05-09 21:07:00,61.9,57.0,29.91,North,0,0.0,0.0,84,0.00,,,0.00,WUHU21623XXSP,2013-05-10 02:07:00,
2013-05-09 21:12:00,61.9,57.3,29.91,North,0,0.0,0.0,85,0.00,,,0.00,WUHU21623XXSP,2013-05-10 02:12:00,
2013-05-09 21:17:00,61.9,57.3,29.91,North,0,0.0,0.0,85,0.00,,,0.00,WUHU21623XXSP,2013-05-10 02:17:00,
2013-05-09 21:22:00,61.9,57.3,29.91,North,0,0.0,0.0,85,0.00,,,0.00,WUHU21623XXSP,2013-05-10 02:22:00,
2013-05-09 21:27:00,61.9,57.3,29.91,North,0,0.0,0.0,85,0.00,,,0.00,WUHU21623XXSP,2013-05-10 02:27:00,
2013-05-09 21:32:00,61.7,57.1,29.92,North,0,0.0,0.0,85,0.00,,,0.00,WUHU21623XXSP,2013-05-10 02:32:00,
2013-05-09 21:37:00,61.7,57.5,29.92,North,0,0.0,0.0,86,0.00,,,0.00,WUHU21623XXSP,2013-05-10 02:37:00,
2013-05-09 21:42:00,61.7,57.5,29.92,North,0,0.0,0.0,86,0.00,,,0.00,WUHU21623XXSP,2013-05-10 02:42:00,
2013-05-09 21:47:00,61.7,57.5,29.92,North,0,0.0,0.0,86,0.00,,,0.00,WUHU21623XXSP,2013-05-10 02:47:00,
2013-05-09 21:52:00,61.7,57.5,29.92,North,0,0.0,0.0,86,0.00,,,0.00,WUHU21623XXSP,2013-05-10 02:52:00,
2013-05-09 21:57:00,61.7,57.5,29.92,North,0,0.0,0.0,86,0.00,,,0.00,WUHU21623XXSP,2013-05-10 02:57:00,
2013-05-09 22:02:00,61.7,57.5,29.92,North,0,0.0,0.0,86,0.00,,,0.00,WUHU21623XXSP,2013-05-10 03:02:00,
2013-05-09 22:07:00,61.5,57.3,29.92,North,0,0.0,0.0,86,0.00,,,0.00,WUHU21623XXSP,2013-05-10 03:07:00,
2013-05-09 22:12:00,61.5,57.3,29.91,North,0,0.0,0.0,86,0.00,,,0.00,WUHU21623XXSP,2013-05-10 03:12:00,
2013-05-09 22:17:00,61.5,57.3,29.91,North,0,0.0,0.0,86,0.00,,,0.00,WUHU21623XXSP,2013-05-10 03:17:00,
2013-05-09 22:22:00,61.5,57.3,29.91,North,0,0.0,0.0,86,0.00,,,0.00,WUHU21623XXSP,2013-05-10 03:22:00,
2013-05-09 22:27:00,61.3,57.1,29.91,North,0,0.0,0.0,86,0.00,,,0.00,WUHU21623XXSP,2013-05-10 03:27:00,
2013-05-09 22:32:00,61.2,57.0,29.92,North,0,0.0,0.0,86,0.00,,,0.00,WUHU21623XXSP,2013-05-10 03:32:00,
2013-05-09 22:37:00,61.0,56.8,29.92,North,0,0.0,0.0,86,0.00,,,0.00,WUHU21623XXSP,2013-05-10 03:37:00,
2013-05-09 22:42:00,61.0,56.8,29.92,North,0,0.0,0.0,86,0.00,,,0.00,WUHU21623XXSP,2013-05-10 03:42:00,
2013-05-09 22:47:00,61.0,56.8,29.92,North,0,0.0,0.0,86,0.00,,,0.00,WUHU21623XXSP,2013-05-10 03:47:00,
2013-05-09 22:52:00,60.8,56.6,29.92,North,0,0.0,0.0,86,0.00,,,0.00,WUHU21623XXSP,2013-05-10 03:52:00,
2013-05-09 22:57:00,60.6,56.4,29.92,North,0,0.0,0.0,86,0.00,,,0.00,WUHU21623XXSP,2013-05-10 03:57:00,
2013-05-09 23:02:00,60.6,56.4,29.92,North,0,0.0,0.0,86,0.00,,,0.00,WUHU21623XXSP,2013-05-10 04:02:00,
2013-05-09 23:05:00,60.6,56.4,29.92,North,0,0.0,0.0,86,0.00,,,0.00,WUHU21623XXSP,2013-05-10 04:05:00,
2013-05-09 23:10:00,60.6,56.4,29.92,North,0,0.0,0.0,86,0.00,,,0.00,WUHU21623XXSP,2013-05-10 04:10:00,
2013-05-09 23:15:00,60.4,56.3,29.92,North,0,0.0,0.0,86,0.00,,,0.00,WUHU21623XXSP,2013-05-10 04:15:00,
2013-05-09 23:20:00,60.4,56.3,29.91,North,0,0.0,0.0,86,0.00,,,0.00,WUHU21623XXSP,2013-05-10 04:20:00,
2013-05-09 23:25:00,60.4,56.3,29.92,North,0,0.0,0.0,86,0.00,,,0.00,WUHU21623XXSP,2013-05-10 04:25:00,
2013-05-09 23:30:00,60.3,56.4,29.91,North,0,0.0,0.0,87,0.00,,,0.00,WUHU21623XXSP,2013-05-10 04:30:00,
2013-05-09 23:35:00,60.1,56.2,29.91,North,0,0.0,0.0,87,0.00,,,0.00,WUHU21623XXSP,2013-05-10 04:35:00,
2013-05-09 23:40:00,60.1,56.2,29.91,North,0,0.0,0.0,87,0.00,,,0.00,WUHU21623XXSP,2013-05-10 04:40:00,
2013-05-09 23:45:00,60.1,56.2,29.92,North,0,0.0,0.0,87,0.00,,,0.00,WUHU21623XXSP,2013-05-10 04:45:00,
2013-05-09 23:50:00,60.1,56.2,29.91,North,0,0.0,0.0,87,0.00,,,0.00,WUHU21623XXSP,2013-05-10 04:50:00,
2013-05-09 23:55:00,60.1,56.2,29.92,North,0,0.0,0.0,87,0.00,,,0.00,WUHU21623XXSP,2013-05-10 04:55:00,